Time;durP1;ratioP1;P1;durP2;ratioP2;P2;SDS_P1;SDS_P2;PMS_P1;PMS_P2;Temp;Humidity;BMP_temperature;BMP_pressure;BME280_temperature;BME280_humidity;BME280_pressure;Samples;Min_cycle;Max_cycle;Signal;HPM_P1;HPM_P2
2021/05/09 00:00:13;;;;;;;3.57;2.10;;;10.90;99.90;;;;;;5091730;28;20249;-65
2021/05/09 00:02:39;;;;;;;3.27;1.90;;;11.00;99.90;;;;;;5091917;28;20205;-64
2021/05/09 00:05:06;;;;;;;2.50;2.00;;;10.90;99.90;;;;;;5091733;28;20208;-64
2021/05/09 00:07:32;;;;;;;2.03;1.80;;;10.90;99.90;;;;;;5091786;28;20227;-64
2021/05/09 00:09:59;;;;;;;3.03;1.73;;;10.80;99.90;;;;;;5091664;28;20208;-64
2021/05/09 00:12:26;;;;;;;2.23;1.70;;;10.90;99.90;;;;;;5091727;28;20257;-64
2021/05/09 00:14:52;;;;;;;2.57;1.90;;;10.80;99.90;;;;;;5091267;28;20312;-63
2021/05/09 00:17:18;;;;;;;2.30;1.80;;;10.70;99.90;;;;;;5091935;28;20205;-63
2021/05/09 00:19:45;;;;;;;2.50;1.97;;;10.60;99.90;;;;;;5091366;28;20584;-64
2021/05/09 00:22:11;;;;;;;2.30;2.03;;;10.60;99.90;;;;;;5091639;28;20204;-64
2021/05/09 00:24:37;;;;;;;3.30;1.93;;;10.50;99.90;;;;;;5091366;28;20197;-64
2021/05/09 00:27:05;;;;;;;1.70;1.53;;;10.50;99.90;;;;;;5091140;28;20243;-63
2021/05/09 00:29:31;;;;;;;3.73;2.00;;;10.50;99.90;;;;;;5091198;28;20667;-64
2021/05/09 00:31:57;;;;;;;2.50;2.00;;;10.50;99.90;;;;;;5091640;28;20613;-64
2021/05/09 00:34:24;;;;;;;2.00;1.73;;;10.30;99.90;;;;;;5091174;28;20232;-64
2021/05/09 00:36:50;;;;;;;2.13;1.83;;;10.40;99.90;;;;;;5091221;28;20310;-64
2021/05/09 00:39:16;;;;;;;3.53;1.80;;;10.30;99.90;;;;;;5091254;28;20313;-64
2021/05/09 00:41:42;;;;;;;3.87;1.73;;;10.30;99.90;;;;;;5091179;28;20204;-64
2021/05/09 00:44:09;;;;;;;3.83;1.87;;;10.30;99.90;;;;;;5091100;28;20752;-64
2021/05/09 00:46:35;;;;;;;4.20;2.00;;;10.30;99.90;;;;;;5091207;28;20228;-64
2021/05/09 00:49:02;;;;;;;2.77;2.00;;;10.30;99.90;;;;;;5090410;28;20211;-63
2021/05/09 00:51:29;;;;;;;4.23;2.07;;;10.30;99.90;;;;;;5091133;28;20207;-64
2021/05/09 00:53:58;;;;;;;4.13;1.97;;;10.30;99.90;;;;;;5090894;28;20231;-63
2021/05/09 00:56:26;;;;;;;2.43;2.10;;;10.30;99.90;;;;;;5090788;28;20235;-64
2021/05/09 00:58:55;;;;;;;3.73;2.00;;;10.30;99.90;;;;;;5090817;28;20676;-63
2021/05/09 01:01:23;;;;;;;3.77;2.00;;;10.30;99.90;;;;;;5091293;28;20214;-64
2021/05/09 01:03:53;;;;;;;2.70;1.70;;;10.20;99.90;;;;;;5090854;28;20675;-64
2021/05/09 01:06:20;;;;;;;2.73;1.50;;;10.20;99.90;;;;;;5090918;28;20235;-64
2021/05/09 01:08:47;;;;;;;2.37;1.60;;;10.30;99.90;;;;;;5090788;28;20231;-64
2021/05/09 01:11:13;;;;;;;2.00;1.70;;;10.30;99.90;;;;;;5091939;28;20215;-63
2021/05/09 01:13:39;;;;;;;2.87;1.50;;;10.20;99.90;;;;;;5091732;28;20208;-63
2021/05/09 01:16:06;;;;;;;2.13;1.50;;;10.30;99.90;;;;;;5091823;28;20224;-64
2021/05/09 01:18:33;;;;;;;3.53;1.70;;;10.30;99.90;;;;;;5091173;28;20261;-64
2021/05/09 01:21:00;;;;;;;2.27;1.60;;;10.30;99.90;;;;;;5091417;28;20686;-64
2021/05/09 01:23:26;;;;;;;5.03;1.50;;;10.40;99.90;;;;;;5091324;28;20215;-64
2021/05/09 01:25:52;;;;;;;1.87;1.53;;;10.40;99.90;;;;;;5091054;28;20236;-64
2021/05/09 01:28:18;;;;;;;4.13;1.70;;;10.30;99.90;;;;;;5091519;28;20326;-67
2021/05/09 01:30:44;;;;;;;3.27;1.73;;;10.30;99.90;;;;;;5091147;28;20208;-65
2021/05/09 01:33:11;;;;;;;2.33;1.60;;;10.40;99.90;;;;;;5091002;28;20265;-64
2021/05/09 01:35:37;;;;;;;2.93;1.63;;;10.40;99.90;;;;;;5090557;28;20707;-64
2021/05/09 01:38:05;;;;;;;3.47;1.53;;;10.30;99.90;;;;;;5090534;28;20502;-64
2021/05/09 01:40:31;;;;;;;1.90;1.47;;;10.40;99.90;;;;;;5090897;28;20204;-64
2021/05/09 01:42:57;;;;;;;1.93;1.53;;;10.40;99.90;;;;;;5090833;28;20584;-65
2021/05/09 01:45:23;;;;;;;3.70;1.50;;;10.40;99.90;;;;;;5090468;28;20232;-64
2021/05/09 01:47:50;;;;;;;2.23;1.77;;;10.40;99.90;;;;;;5090545;28;20204;-64
2021/05/09 01:50:17;;;;;;;1.83;1.67;;;10.40;99.90;;;;;;5090435;28;20212;-64
2021/05/09 01:52:44;;;;;;;2.97;1.50;;;10.40;99.90;;;;;;5090356;28;20684;-64
2021/05/09 01:55:13;;;;;;;1.57;1.47;;;10.40;99.90;;;;;;5090374;28;20228;-64
2021/05/09 01:57:40;;;;;;;2.93;2.27;;;10.40;99.90;;;;;;5090411;28;20254;-64
2021/05/09 02:00:08;;;;;;;7.90;5.53;;;10.40;99.90;;;;;;5092302;28;20615;-65
2021/05/09 02:02:35;;;;;;;3.13;2.07;;;10.40;99.90;;;;;;5094157;28;20211;-63
2021/05/09 02:05:01;;;;;;;3.53;1.97;;;10.40;99.90;;;;;;5093776;28;20222;-64
2021/05/09 02:07:27;;;;;;;2.37;1.53;;;10.40;99.90;;;;;;5093886;28;20757;-64
2021/05/09 02:09:53;;;;;;;2.37;1.20;;;10.30;99.90;;;;;;5093956;28;20266;-64
2021/05/09 02:12:20;;;;;;;3.13;1.50;;;10.40;99.90;;;;;;5094008;28;20675;-64
2021/05/09 02:14:46;;;;;;;1.60;1.33;;;10.40;99.90;;;;;;5093716;28;20227;-64
2021/05/09 02:17:13;;;;;;;1.20;1.10;;;10.50;99.90;;;;;;5093782;28;20228;-63
2021/05/09 02:19:39;;;;;;;1.83;1.40;;;10.40;99.90;;;;;;5093598;28;20246;-64
2021/05/09 02:22:05;;;;;;;2.40;1.30;;;10.40;99.90;;;;;;5093629;28;20664;-64
2021/05/09 02:24:31;;;;;;;2.07;1.30;;;10.40;99.90;;;;;;5093724;28;20208;-64
2021/05/09 02:26:58;;;;;;;2.53;1.40;;;10.40;99.90;;;;;;5093761;28;20236;-65
2021/05/09 02:29:25;;;;;;;1.83;1.30;;;10.40;99.90;;;;;;5093523;28;20238;-64
2021/05/09 02:31:51;;;;;;;2.10;1.53;;;10.50;99.90;;;;;;5093612;28;20200;-65
2021/05/09 02:34:18;;;;;;;2.63;1.20;;;10.60;99.90;;;;;;5093264;28;20224;-65
2021/05/09 02:36:44;;;;;;;3.23;1.40;;;10.60;99.90;;;;;;5093588;28;20228;-65
2021/05/09 02:39:10;;;;;;;2.60;1.30;;;10.50;99.90;;;;;;5093313;28;20251;-64
2021/05/09 02:41:37;;;;;;;2.37;1.20;;;10.50;99.90;;;;;;5093355;28;20586;-65
2021/05/09 02:44:03;;;;;;;1.87;1.37;;;10.60;99.90;;;;;;5093330;28;20212;-64
2021/05/09 02:46:30;;;;;;;3.57;1.50;;;10.60;99.90;;;;;;5093735;28;20228;-65
2021/05/09 02:48:57;;;;;;;3.10;1.80;;;10.50;99.90;;;;;;5093220;28;20672;-64
2021/05/09 02:51:23;;;;;;;2.13;1.60;;;10.60;99.90;;;;;;5093327;28;20205;-64
2021/05/09 02:53:49;;;;;;;2.27;1.63;;;10.70;99.90;;;;;;5093167;28;20200;-64
2021/05/09 02:56:15;;;;;;;1.80;1.37;;;10.80;99.90;;;;;;5093257;28;20734;-64
2021/05/09 02:58:41;;;;;;;3.20;1.47;;;10.80;99.90;;;;;;5093165;28;20207;-66
2021/05/09 03:01:08;;;;;;;3.67;1.80;;;10.80;99.90;;;;;;5093073;28;20258;-64
2021/05/09 03:03:35;;;;;;;23.03;15.63;;;10.80;99.90;;;;;;5092755;28;20200;-67
2021/05/09 03:06:01;;;;;;;48.10;30.70;;;10.70;99.90;;;;;;5093103;28;20224;-64
2021/05/09 03:08:27;;;;;;;3.43;3.00;;;10.70;99.90;;;;;;5092952;28;20204;-65
2021/05/09 03:10:53;;;;;;;3.27;2.97;;;10.80;99.90;;;;;;5092532;28;20216;-65
2021/05/09 03:13:19;;;;;;;4.37;2.13;;;10.80;99.90;;;;;;5092646;28;20270;-64
2021/05/09 03:15:45;;;;;;;2.40;2.10;;;10.80;99.90;;;;;;5092468;28;20231;-64
2021/05/09 03:18:12;;;;;;;4.37;2.23;;;10.80;99.90;;;;;;5092503;28;20210;-64
2021/05/09 03:20:39;;;;;;;2.20;1.80;;;10.90;99.90;;;;;;5092945;28;20208;-63
2021/05/09 03:23:05;;;;;;;3.30;2.10;;;10.90;99.90;;;;;;5092915;28;20208;-64
2021/05/09 03:25:31;;;;;;;2.50;2.30;;;10.90;99.90;;;;;;5093955;28;20232;-64
2021/05/09 03:27:58;;;;;;;3.00;2.57;;;10.90;99.90;;;;;;5094013;28;20717;-64
2021/05/09 03:30:24;;;;;;;3.10;2.70;;;10.90;99.90;;;;;;5094552;28;20208;-65
2021/05/09 03:32:50;;;;;;;4.53;3.07;;;10.90;99.90;;;;;;5092538;28;20204;-64
2021/05/09 03:35:17;;;;;;;6.67;4.70;;;10.80;99.90;;;;;;5092896;28;20232;-64
2021/05/09 03:37:44;;;;;;;2.47;2.10;;;10.80;99.90;;;;;;5092576;28;20208;-64
2021/05/09 03:40:10;;;;;;;2.67;1.73;;;10.80;99.90;;;;;;5092844;28;20211;-64
2021/05/09 03:42:37;;;;;;;3.27;2.37;;;10.80;99.90;;;;;;5092633;28;20211;-65
2021/05/09 03:45:04;;;;;;;6.43;3.70;;;10.70;99.90;;;;;;5092297;28;20208;-64
2021/05/09 03:47:30;;;;;;;4.67;3.10;;;10.80;99.90;;;;;;5092276;28;20732;-64
2021/05/09 03:49:57;;;;;;;9.30;3.53;;;10.80;99.90;;;;;;5092081;28;20671;-64
2021/05/09 03:52:24;;;;;;;5.30;1.57;;;10.80;99.90;;;;;;5092107;28;20215;-64
2021/05/09 03:54:52;;;;;;;4.47;2.77;;;10.80;99.90;;;;;;5091795;28;20224;-64
2021/05/09 03:57:18;;;;;;;3.50;2.10;;;10.80;99.90;;;;;;5091874;28;20695;-64
2021/05/09 03:59:44;;;;;;;2.67;1.33;;;10.90;99.90;;;;;;5091762;28;20204;-64
2021/05/09 04:02:10;;;;;;;2.67;1.40;;;10.90;99.90;;;;;;5092045;28;20245;-65
2021/05/09 04:04:37;;;;;;;1.30;1.20;;;10.90;99.90;;;;;;5091820;28;20203;-63
2021/05/09 04:07:03;;;;;;;2.87;1.40;;;10.90;99.90;;;;;;5091746;28;20228;-65
2021/05/09 04:09:29;;;;;;;2.40;1.50;;;11.10;99.90;;;;;;5091980;28;20214;-64
2021/05/09 04:11:56;;;;;;;1.83;1.50;;;11.20;99.90;;;;;;5091758;28;20578;-65
2021/05/09 04:14:22;;;;;;;2.60;1.60;;;11.40;99.90;;;;;;5091346;28;20247;-64
2021/05/09 04:16:49;;;;;;;2.00;1.63;;;11.50;99.90;;;;;;5091742;28;20232;-64
2021/05/09 04:19:15;;;;;;;3.23;1.30;;;11.60;99.90;;;;;;5091237;28;20671;-65
2021/05/09 04:21:41;;;;;;;2.30;1.33;;;11.60;99.90;;;;;;5091713;28;20208;-65
2021/05/09 04:24:08;;;;;;;3.13;1.20;;;11.50;99.90;;;;;;5090585;28;20200;-65
2021/05/09 04:26:34;;;;;;;1.60;1.10;;;11.50;99.90;;;;;;5091324;28;20236;-64
2021/05/09 04:29:01;;;;;;;3.50;1.60;;;11.60;99.90;;;;;;5091495;28;20230;-65
2021/05/09 04:31:28;;;;;;;1.37;1.27;;;11.70;99.90;;;;;;5091750;28;20200;-65
2021/05/09 04:33:54;;;;;;;3.57;1.20;;;11.90;99.90;;;;;;5091430;28;20261;-65
2021/05/09 04:36:20;;;;;;;2.33;1.60;;;12.10;99.90;;;;;;5091001;28;20576;-65
2021/05/09 04:38:46;;;;;;;5.00;4.60;;;12.20;99.90;;;;;;5091625;28;20261;-65
2021/05/09 04:41:12;;;;;;;2.77;1.33;;;12.30;99.90;;;;;;5091899;28;20227;-65
2021/05/09 04:43:39;;;;;;;3.27;1.80;;;12.40;99.90;;;;;;5091669;28;20652;-65
2021/05/09 04:46:06;;;;;;;4.43;3.47;;;12.50;99.90;;;;;;5091316;28;20224;-64
2021/05/09 04:48:32;;;;;;;3.30;2.47;;;12.80;99.90;;;;;;5091366;28;20203;-65
2021/05/09 04:50:58;;;;;;;9.83;6.90;;;12.90;99.90;;;;;;5091584;28;20203;-65
2021/05/09 04:53:27;;;;;;;2.50;1.93;;;13.10;99.90;;;;;;5090996;28;20211;-65
2021/05/09 04:55:53;;;;;;;2.97;1.57;;;13.40;99.90;;;;;;5091017;28;20649;-65
2021/05/09 04:58:20;;;;;;;1.40;1.17;;;13.70;99.90;;;;;;5091333;28;20211;-65
2021/05/09 05:00:46;;;;;;;2.00;1.73;;;13.90;99.90;;;;;;5091145;28;20310;-65
2021/05/09 05:03:14;;;;;;;2.10;1.30;;;14.10;99.90;;;;;;5091331;28;20238;-65
2021/05/09 05:05:40;;;;;;;2.00;1.50;;;14.30;99.90;;;;;;5090635;28;20289;-65
2021/05/09 05:08:06;;;;;;;1.80;1.20;;;14.50;99.90;;;;;;5090601;28;20694;-65
2021/05/09 05:10:32;;;;;;;2.97;1.80;;;14.70;99.90;;;;;;5091206;28;20208;-64
2021/05/09 05:12:59;;;;;;;1.60;1.33;;;14.60;99.90;;;;;;5090806;28;20767;-65
2021/05/09 05:15:25;;;;;;;1.60;1.40;;;14.60;99.90;;;;;;5090565;28;20235;-65
2021/05/09 05:17:51;;;;;;;3.23;1.50;;;14.60;99.90;;;;;;5090756;28;20208;-66
2021/05/09 05:20:18;;;;;;;2.80;1.57;;;14.70;99.70;;;;;;5090752;28;20212;-64
2021/05/09 05:22:44;;;;;;;2.47;2.17;;;14.80;99.50;;;;;;5090572;28;20204;-65
2021/05/09 05:25:12;;;;;;;2.30;1.57;;;15.10;99.00;;;;;;5090635;28;20228;-65
2021/05/09 05:27:38;;;;;;;4.87;2.17;;;15.30;98.70;;;;;;5091279;28;20571;-64
2021/05/09 05:30:06;;;;;;;4.50;2.90;;;15.60;97.90;;;;;;5090733;28;20215;-65
2021/05/09 05:32:32;;;;;;;2.57;1.87;;;15.90;97.30;;;;;;5090768;28;20204;-65
2021/05/09 05:34:58;;;;;;;2.07;1.40;;;16.20;96.70;;;;;;5091728;28;20220;-64
2021/05/09 05:37:25;;;;;;;1.90;1.53;;;16.70;95.90;;;;;;5094640;28;20204;-65
2021/05/09 05:39:51;;;;;;;2.10;1.40;;;17.50;95.00;;;;;;5094316;28;20663;-65
2021/05/09 05:42:17;;;;;;;2.77;1.40;;;18.30;93.20;;;;;;5094672;28;20261;-65
2021/05/09 05:44:43;;;;;;;1.30;1.20;;;19.20;91.80;;;;;;5094583;28;20207;-65
2021/05/09 05:47:10;;;;;;;5.70;4.95;;;20.10;90.20;;;;;;5094425;28;20217;-66
2021/05/09 05:49:36;;;;;;;5.03;4.53;;;20.60;87.00;;;;;;5094164;28;20676;-65
2021/05/09 05:52:02;;;;;;;3.15;2.22;;;20.70;84.00;;;;;;5094428;28;20208;-65
2021/05/09 05:54:29;;;;;;;2.20;1.80;;;20.90;84.10;;;;;;5094108;28;20695;-64
2021/05/09 05:56:55;;;;;;;1.38;1.25;;;21.10;83.70;;;;;;5094376;28;20227;-66
2021/05/09 05:59:21;;;;;;;1.92;1.55;;;21.30;83.20;;;;;;5094460;28;20212;-66
2021/05/09 06:01:48;;;;;;;1.85;1.23;;;21.40;82.20;;;;;;5094289;28;20208;-66
2021/05/09 06:04:14;;;;;;;1.48;1.00;;;21.80;81.70;;;;;;5094343;28;20210;-66
2021/05/09 06:06:40;;;;;;;2.25;1.40;;;22.90;79.10;;;;;;5094168;28;20224;-66
2021/05/09 06:09:07;;;;;;;4.25;2.00;;;24.40;73.30;;;;;;5093751;28;20215;-64
2021/05/09 06:11:34;;;;;;;1.95;1.40;;;26.00;69.40;;;;;;5093915;28;20950;-64
2021/05/09 06:14:00;;;;;;;2.42;1.40;;;27.70;63.20;;;;;;5094147;28;20208;-65
2021/05/09 06:16:26;;;;;;;5.97;3.15;;;29.30;59.10;;;;;;5093943;28;20228;-65
2021/05/09 06:18:52;;;;;;;2.25;1.90;;;30.70;55.40;;;;;;5093658;28;20676;-65
2021/05/09 06:21:19;;;;;;;4.07;2.47;;;31.90;51.10;;;;;;5093952;28;20207;-65
2021/05/09 06:23:45;;;;;;;2.40;2.10;;;32.80;49.00;;;;;;5093618;28;20208;-64
2021/05/09 06:26:11;;;;;;;4.32;2.47;;;33.40;46.60;;;;;;5093533;28;20235;-65
2021/05/09 06:28:38;;;;;;;3.65;2.72;;;34.10;45.80;;;;;;5093565;28;20215;-66
2021/05/09 06:31:05;;;;;;;4.30;3.90;;;34.90;44.30;;;;;;5093586;28;20233;-66
2021/05/09 06:33:31;;;;;;;7.82;5.95;;;35.30;40.90;;;;;;5093494;28;20266;-65
2021/05/09 06:35:57;;;;;;;4.32;3.58;;;35.20;42.30;;;;;;5093210;28;20224;-64
2021/05/09 06:38:23;;;;;;;4.43;1.98;;;34.80;42.60;;;;;;5093529;28;20208;-64
2021/05/09 06:40:49;;;;;;;2.25;1.70;;;35.40;42.00;;;;;;5093585;28;20208;-65
2021/05/09 06:43:17;;;;;;;2.67;2.00;;;36.30;41.00;;;;;;5093442;28;20200;-66
2021/05/09 06:45:45;;;;;;;2.33;1.58;;;36.70;40.50;;;;;;5092672;28;20247;-65
2021/05/09 06:48:12;;;;;;;4.28;1.80;;;37.30;39.60;;;;;;5092777;28;20204;-66
2021/05/09 06:50:38;;;;;;;2.97;2.05;;;38.10;38.80;;;;;;5093352;28;20208;-66
2021/05/09 06:53:06;;;;;;;3.28;1.73;;;38.90;37.60;;;;;;5093660;28;20208;-66
2021/05/09 06:55:33;;;;;;;2.80;1.77;;;39.40;36.50;;;;;;5093356;28;20579;-66
2021/05/09 06:58:00;;;;;;;3.35;1.35;;;39.70;36.10;;;;;;5093436;28;20287;-64
2021/05/09 07:00:26;;;;;;;5.90;1.52;;;39.90;35.80;;;;;;5093610;28;20225;-66
2021/05/09 07:02:53;;;;;;;2.83;1.33;;;40.10;35.60;;;;;;5093384;28;20204;-66
2021/05/09 07:05:20;;;;;;;3.42;1.60;;;40.60;34.60;;;;;;5092927;28;20228;-65
2021/05/09 07:07:50;;;;;;;3.22;1.60;;;40.70;34.50;;;;;;5092925;28;20668;-66
2021/05/09 07:10:17;;;;;;;2.97;1.50;;;41.00;34.30;;;;;;5093001;28;20583;-66
2021/05/09 07:12:43;;;;;;;4.18;1.83;;;41.00;33.00;;;;;;5093105;28;20235;-65
2021/05/09 07:15:11;;;;;;;1.83;1.30;;;41.00;32.60;;;;;;5092660;28;20224;-65
2021/05/09 07:17:37;;;;;;;1.15;0.80;;;41.40;31.40;;;;;;5092526;28;20204;-66
2021/05/09 07:20:06;;;;;;;2.80;1.27;;;41.70;30.00;;;;;;5093038;28;20232;-67
2021/05/09 07:22:36;;;;;;;1.55;0.93;;;41.40;30.10;;;;;;5092693;28;20200;-65
2021/05/09 07:25:02;;;;;;;2.15;1.27;;;41.20;30.00;;;;;;5092955;28;20203;-66
2021/05/09 07:27:28;;;;;;;2.55;1.77;;;40.60;30.50;;;;;;5092991;28;20204;-65
2021/05/09 07:29:55;;;;;;;3.00;1.10;;;40.60;30.50;;;;;;5092676;28;20706;-65
2021/05/09 07:32:21;;;;;;;3.35;2.55;;;40.20;30.70;;;;;;5092727;28;20208;-65
2021/05/09 07:34:47;;;;;;;2.95;1.38;;;39.90;30.90;;;;;;5092685;28;20726;-65
2021/05/09 07:37:14;;;;;;;0.90;0.75;;;39.20;31.70;;;;;;5093100;28;20228;-67
2021/05/09 07:39:40;;;;;;;1.55;0.80;;;39.00;31.10;;;;;;5092956;28;20235;-65
2021/05/09 07:42:06;;;;;;;2.33;0.90;;;38.90;31.00;;;;;;5092753;28;20212;-66
2021/05/09 07:44:33;;;;;;;3.38;0.95;;;38.60;31.60;;;;;;5092413;28;20227;-65
2021/05/09 07:46:59;;;;;;;2.55;1.40;;;38.60;31.50;;;;;;5093267;28;20232;-67
2021/05/09 07:49:26;;;;;;;1.88;1.40;;;38.40;31.40;;;;;;5094277;28;20204;-65
2021/05/09 07:51:52;;;;;;;1.58;0.98;;;38.40;31.50;;;;;;5093978;28;20269;-65
2021/05/09 07:54:19;;;;;;;2.03;1.27;;;38.50;31.40;;;;;;5093123;28;20204;-65
2021/05/09 07:56:45;;;;;;;1.40;0.70;;;38.50;31.20;;;;;;5093111;28;20230;-66
2021/05/09 07:59:11;;;;;;;0.73;0.70;;;38.20;31.30;;;;;;5092612;28;20207;-65
2021/05/09 08:01:37;;;;;;;2.45;1.02;;;38.00;31.70;;;;;;5092825;28;20582;-66
2021/05/09 08:04:04;;;;;;;5.15;3.53;;;37.80;31.40;;;;;;5092270;28;20211;-65
2021/05/09 08:06:31;;;;;;;1.85;1.08;;;37.30;32.30;;;;;;5091840;28;20224;-65
2021/05/09 08:08:57;;;;;;;2.17;1.20;;;37.40;32.00;;;;;;5091797;28;20254;-65
2021/05/09 08:11:24;;;;;;;1.38;1.20;;;37.70;32.20;;;;;;5091691;28;20571;-63
2021/05/09 08:13:50;;;;;;;2.10;1.42;;;38.10;31.30;;;;;;5091436;28;20208;-64
2021/05/09 08:16:16;;;;;;;2.40;1.58;;;38.10;31.10;;;;;;5091268;28;20757;-64
2021/05/09 08:18:42;;;;;;;2.00;1.80;;;38.10;31.90;;;;;;5092175;28;20207;-63
2021/05/09 08:21:08;;;;;;;2.28;1.10;;;38.20;31.10;;;;;;5091747;28;20212;-62
2021/05/09 08:23:37;;;;;;;1.75;1.10;;;38.50;31.10;;;;;;5091262;28;20687;-62
2021/05/09 08:26:04;;;;;;;2.22;1.05;;;38.60;30.20;;;;;;5091232;28;20731;-63
2021/05/09 08:28:31;;;;;;;2.42;1.60;;;38.40;30.70;;;;;;5091174;28;20200;-64
2021/05/09 08:30:57;;;;;;;5.22;2.75;;;37.70;31.30;;;;;;5091458;28;20210;-63
2021/05/09 08:33:23;;;;;;;2.20;1.40;;;37.20;32.00;;;;;;5091460;28;20291;-64
2021/05/09 08:35:50;;;;;;;4.35;2.67;;;36.00;33.10;;;;;;5091326;28;20360;-64
2021/05/09 08:38:16;;;;;;;2.60;1.08;;;34.40;34.30;;;;;;5091470;28;20204;-63
2021/05/09 08:40:42;;;;;;;2.22;1.58;;;32.50;36.10;;;;;;5091657;28;20204;-62
2021/05/09 08:43:09;;;;;;;2.60;1.42;;;31.00;38.50;;;;;;5091344;28;20676;-63
2021/05/09 08:45:36;;;;;;;1.27;1.13;;;29.80;40.60;;;;;;5091428;28;20270;-63
2021/05/09 08:48:03;;;;;;;1.10;0.90;;;28.90;42.00;;;;;;5091551;28;20208;-63
2021/05/09 08:50:31;;;;;;;1.52;1.20;;;28.10;43.00;;;;;;5091582;28;20208;-63
2021/05/09 08:52:57;;;;;;;3.33;1.00;;;27.50;43.90;;;;;;5091396;28;20204;-63
2021/05/09 08:55:26;;;;;;;1.50;1.15;;;27.10;45.50;;;;;;5090908;28;20227;-63
2021/05/09 08:57:54;;;;;;;2.25;1.30;;;26.90;45.10;;;;;;5090910;28;20565;-64
2021/05/09 09:00:22;;;;;;;1.63;1.30;;;26.80;44.20;;;;;;5091010;28;20203;-63
2021/05/09 09:02:49;;;;;;;1.50;1.02;;;26.80;44.20;;;;;;5091390;28;20204;-63
2021/05/09 09:05:16;;;;;;;1.40;1.25;;;26.70;44.00;;;;;;5090757;28;20220;-62
2021/05/09 09:07:44;;;;;;;2.05;0.93;;;26.60;43.80;;;;;;5090953;28;20580;-61
2021/05/09 09:10:12;;;;;;;2.28;0.82;;;26.60;45.50;;;;;;5092666;28;20204;-62
2021/05/09 09:12:38;;;;;;;2.65;1.00;;;26.50;45.30;;;;;;5094824;28;20664;-63
2021/05/09 09:15:06;;;;;;;1.88;1.48;;;26.60;45.10;;;;;;5094667;28;20277;-63
2021/05/09 09:17:32;;;;;;;3.22;0.90;;;26.70;44.40;;;;;;5095198;28;20281;-63
2021/05/09 09:20:10;;;;;;;2.05;0.93;;;26.70;42.30;;;;;;5094932;28;20199;-64
2021/05/09 09:22:56;;;;;;;2.25;1.08;;;26.70;43.30;;;;;;5095545;28;20188;-63
2021/05/09 09:25:25;;;;;;;2.30;1.08;;;26.70;43.70;;;;;;5116787;22;20349;-60
2021/05/09 09:27:52;;;;;;;1.65;0.90;;;26.80;44.00;;;;;;5054767;28;20212;-59
2021/05/09 09:30:20;;;;;;;1.60;1.08;;;26.80;43.50;;;;;;5055009;28;20212;-59
2021/05/09 09:33:07;;;;;;;1.30;1.00;;;26.80;43.40;;;;;;5054712;28;20205;-60
2021/05/09 09:35:35;;;;;;;1.00;0.65;;;26.90;42.90;;;;;;5054526;28;20371;-59
2021/05/09 09:38:02;;;;;;;1.67;1.00;;;27.00;41.30;;;;;;5054985;28;20233;-60
2021/05/09 09:40:28;;;;;;;3.83;1.95;;;27.00;42.50;;;;;;5054654;28;20661;-60
2021/05/09 09:42:54;;;;;;;2.50;1.38;;;27.10;41.60;;;;;;5054373;28;20226;-59
2021/05/09 09:45:22;;;;;;;3.33;1.65;;;27.30;40.90;;;;;;5054343;28;20258;-61
2021/05/09 09:47:50;;;;;;;2.03;0.93;;;27.40;40.60;;;;;;5055824;28;20213;-62
2021/05/09 09:50:36;;;;;;;2.80;1.00;;;27.50;41.00;;;;;;5055639;28;20229;-61
2021/05/09 09:53:23;;;;;;;1.50;1.27;;;27.60;41.10;;;;;;5056147;28;20670;-60
2021/05/09 09:56:00;;;;;;;2.97;1.08;;;27.60;41.50;;;;;;5054425;28;20601;-61
2021/05/09 09:58:39;;;;;;;1.88;1.40;;;27.70;41.60;;;;;;5054233;28;20205;-61
2021/05/09 10:01:05;;;;;;;1.17;1.08;;;27.80;41.80;;;;;;5054521;28;20601;-61
2021/05/09 10:03:31;;;;;;;1.83;1.20;;;27.90;41.60;;;;;;5054083;28;20202;-60
2021/05/09 10:05:59;;;;;;;3.88;1.80;;;28.00;40.10;;;;;;5053930;28;20221;-61
2021/05/09 10:08:25;;;;;;;1.40;1.10;;;28.10;40.20;;;;;;5054013;28;20247;-62
2021/05/09 10:10:52;;;;;;;2.45;1.20;;;28.20;39.50;;;;;;5054261;28;20221;-60
2021/05/09 10:13:19;;;;;;;1.48;0.90;;;28.30;39.20;;;;;;5053889;28;20206;-60
2021/05/09 10:15:45;;;;;;;1.92;0.90;;;28.30;38.60;;;;;;5054207;28;20287;-60
2021/05/09 10:18:12;;;;;;;2.55;1.20;;;28.30;38.50;;;;;;5054307;28;20201;-60
2021/05/09 10:20:40;;;;;;;3.92;1.50;;;28.40;38.40;;;;;;5054309;28;20205;-61
2021/05/09 10:23:08;;;;;;;2.10;1.00;;;28.40;38.10;;;;;;5054117;28;20206;-61
2021/05/09 10:25:45;;;;;;;2.22;1.10;;;28.60;38.10;;;;;;5054244;28;20268;-64
2021/05/09 10:28:12;;;;;;;1.15;0.82;;;28.70;37.40;;;;;;5054670;28;20575;-64
2021/05/09 10:30:44;;;;;;;3.83;2.22;;;28.90;37.90;;;;;;5053955;28;20609;-61
2021/05/09 10:33:11;;;;;;;1.83;1.73;;;28.90;38.30;;;;;;5054096;28;20210;-62
2021/05/09 10:35:42;;;;;;;1.55;1.02;;;28.90;37.90;;;;;;5053371;28;20233;-62
2021/05/09 10:38:10;;;;;;;2.50;1.50;;;28.90;37.70;;;;;;5053665;28;20300;-64
2021/05/09 10:40:44;;;;;;;5.50;2.15;;;29.00;37.50;;;;;;5053406;28;20573;-62
2021/05/09 10:43:29;;;;;;;3.08;1.80;;;29.00;37.80;;;;;;5053293;28;20213;-64
2021/05/09 10:45:55;;;;;;;2.85;2.55;;;29.20;37.90;;;;;;5053163;28;20668;-65
2021/05/09 10:48:29;;;;;;;1.65;1.10;;;29.30;37.20;;;;;;5054604;28;20202;-65
2021/05/09 10:51:23;;;;;;;1.92;1.20;;;29.40;37.40;;;;;;5055190;28;20206;-65
2021/05/09 10:53:52;;;;;;;2.63;1.27;;;29.50;36.80;;;;;;5055591;28;20206;-63
2021/05/09 10:56:34;;;;;;;1.63;0.90;;;29.60;37.30;;;;;;5053658;28;20325;-62
2021/05/09 10:59:01;;;;;;;2.88;1.27;;;29.60;37.20;;;;;;5054278;28;20210;-63
2021/05/09 11:01:32;;;;;;;1.42;0.90;;;29.70;36.80;;;;;;5053824;28;20707;-63
2021/05/09 11:04:00;;;;;;;2.08;0.90;;;29.60;36.50;;;;;;5054485;28;20688;-62
2021/05/09 11:06:38;;;;;;;1.35;1.00;;;29.70;36.80;;;;;;5054373;28;20236;-63
2021/05/09 11:09:07;;;;;;;4.50;1.13;;;29.80;37.30;;;;;;5054418;28;20467;-62
2021/05/09 11:11:57;;;;;;;4.03;1.50;;;29.80;37.20;;;;;;5054956;28;20201;-63
2021/05/09 11:14:23;;;;;;;4.35;1.13;;;29.80;36.80;;;;;;5054911;28;20661;-63
2021/05/09 11:17:04;;;;;;;3.83;1.33;;;29.90;37.40;;;;;;5054659;28;20255;-64
2021/05/09 11:19:43;;;;;;;3.85;1.20;;;29.90;37.20;;;;;;5053997;28;20295;-63
2021/05/09 11:22:09;;;;;;;4.50;2.85;;;29.90;36.90;;;;;;5055022;28;20228;-63
2021/05/09 11:24:38;;;;;;;4.00;1.00;;;29.90;36.90;;;;;;5053938;28;20213;-64
2021/05/09 11:27:08;;;;;;;2.38;1.63;;;30.10;36.90;;;;;;5054452;28;20233;-63
2021/05/09 11:29:35;;;;;;;3.22;2.30;;;30.10;36.70;;;;;;5054155;28;20217;-63
2021/05/09 11:32:06;;;;;;;1.58;1.17;;;30.10;36.70;;;;;;5053503;28;20205;-65
2021/05/09 11:34:33;;;;;;;6.18;2.20;;;30.10;36.80;;;;;;5054398;28;20206;-65
2021/05/09 11:37:00;;;;;;;3.78;2.55;;;30.20;36.50;;;;;;5054445;28;20233;-64
2021/05/09 11:39:34;;;;;;;2.70;2.50;;;30.40;36.00;;;;;;5054196;28;20232;-65
2021/05/09 11:42:04;;;;;;;3.92;2.78;;;30.40;36.20;;;;;;5054651;28;20699;-63
2021/05/09 11:44:33;;;;;;;3.00;2.13;;;30.50;36.70;;;;;;5054218;28;20205;-64
2021/05/09 11:47:04;;;;;;;2.47;1.00;;;30.60;36.40;;;;;;5053856;28;20236;-64
2021/05/09 11:49:31;;;;;;;1.45;0.90;;;30.50;35.60;;;;;;5053985;28;20428;-64
2021/05/09 11:51:58;;;;;;;3.03;1.08;;;30.60;35.60;;;;;;5055135;28;20201;-64
2021/05/09 11:54:26;;;;;;;4.15;2.88;;;30.50;36.30;;;;;;5053751;28;20217;-65
2021/05/09 11:56:54;;;;;;;1.00;0.93;;;30.70;35.70;;;;;;5054995;28;20232;-64
2021/05/09 11:59:38;;;;;;;1.38;0.90;;;30.70;35.40;;;;;;5055380;28;20245;-64
2021/05/09 12:02:18;;;;;;;1.55;1.00;;;31.00;35.50;;;;;;5055400;28;20213;-64
2021/05/09 12:04:48;;;;;;;1.95;0.80;;;30.90;35.10;;;;;;5055688;28;20213;-64
2021/05/09 12:07:17;;;;;;;4.03;1.40;;;31.00;35.50;;;;;;5054317;28;20709;-64
2021/05/09 12:09:49;;;;;;;1.98;1.00;;;31.00;35.10;;;;;;5056759;28;20209;-65
2021/05/09 12:12:18;;;;;;;1.10;0.93;;;31.10;34.40;;;;;;5057584;28;20210;-64
2021/05/09 12:14:46;;;;;;;1.40;0.80;;;31.10;34.80;;;;;;5057209;28;20263;-64
2021/05/09 12:17:23;;;;;;;2.58;0.75;;;31.20;34.60;;;;;;5056563;28;20230;-64
2021/05/09 12:19:50;;;;;;;1.25;0.75;;;31.20;34.30;;;;;;5057138;28;20209;-64
2021/05/09 12:22:17;;;;;;;2.75;0.95;;;31.10;34.40;;;;;;5056038;28;20201;-64
2021/05/09 12:24:52;;;;;;;1.30;0.90;;;31.10;34.10;;;;;;5053478;28;20212;-64
2021/05/09 12:27:19;;;;;;;2.28;0.98;;;31.20;34.10;;;;;;5053918;28;20237;-63
2021/05/09 12:29:48;;;;;;;4.00;0.98;;;31.10;34.20;;;;;;5053261;28;20213;-63
2021/05/09 12:32:15;;;;;;;1.60;0.80;;;31.10;34.10;;;;;;5053301;28;20209;-63
2021/05/09 12:34:55;;;;;;;2.35;1.17;;;31.30;34.20;;;;;;5055143;28;20209;-64
2021/05/09 12:37:23;;;;;;;0.90;0.80;;;31.40;33.80;;;;;;5057133;28;20225;-64
2021/05/09 12:39:49;;;;;;;1.10;0.90;;;31.50;33.60;;;;;;5056779;28;20707;-63
2021/05/09 12:42:15;;;;;;;0.85;0.68;;;31.70;34.40;;;;;;5056101;28;20205;-64
2021/05/09 12:44:41;;;;;;;5.22;2.15;;;31.70;33.80;;;;;;5053456;28;20751;-64
2021/05/09 12:47:21;;;;;;;1.63;1.08;;;31.60;34.10;;;;;;5053549;28;20221;-63